sensor_id;sensor_type;location;lat;lon;timestamp;P1;durP1;ratioP1;P2;durP2;ratioP2
55202;SDS011;41077;52.956;6.796;2023-04-24T00:01:28;3.55;;;1.35;;
55202;SDS011;41077;52.956;6.796;2023-04-24T00:03:54;2.15;;;1.20;;
55202;SDS011;41077;52.956;6.796;2023-04-24T00:06:25;1.45;;;1.30;;
55202;SDS011;41077;52.956;6.796;2023-04-24T00:08:58;2.15;;;1.50;;
55202;SDS011;41077;52.956;6.796;2023-04-24T00:11:27;1.85;;;1.75;;
55202;SDS011;41077;52.956;6.796;2023-04-24T00:13:52;4.70;;;2.17;;
55202;SDS011;41077;52.956;6.796;2023-04-24T00:16:18;2.70;;;2.50;;
55202;SDS011;41077;52.956;6.796;2023-04-24T00:18:44;2.55;;;2.35;;
55202;SDS011;41077;52.956;6.796;2023-04-24T00:21:10;3.28;;;2.70;;
55202;SDS011;41077;52.956;6.796;2023-04-24T00:23:36;3.05;;;2.85;;
55202;SDS011;41077;52.956;6.796;2023-04-24T00:26:02;3.35;;;2.95;;
55202;SDS011;41077;52.956;6.796;2023-04-24T00:28:27;4.07;;;2.95;;
55202;SDS011;41077;52.956;6.796;2023-04-24T00:30:53;3.47;;;3.17;;
55202;SDS011;41077;52.956;6.796;2023-04-24T00:33:19;3.50;;;3.20;;
55202;SDS011;41077;52.956;6.796;2023-04-24T00:35:45;3.45;;;3.15;;
55202;SDS011;41077;52.956;6.796;2023-04-24T00:38:11;3.67;;;3.38;;
55202;SDS011;41077;52.956;6.796;2023-04-24T00:40:36;3.65;;;3.35;;
55202;SDS011;41077;52.956;6.796;2023-04-24T00:43:02;4.30;;;3.90;;
55202;SDS011;41077;52.956;6.796;2023-04-24T00:45:28;4.55;;;4.15;;
55202;SDS011;41077;52.956;6.796;2023-04-24T00:47:56;4.65;;;4.25;;
55202;SDS011;41077;52.956;6.796;2023-04-24T00:50:23;4.28;;;3.88;;
55202;SDS011;41077;52.956;6.796;2023-04-24T00:52:49;6.45;;;4.68;;
55202;SDS011;41077;52.956;6.796;2023-04-24T00:55:15;4.80;;;3.90;;
55202;SDS011;41077;52.956;6.796;2023-04-24T00:57:42;5.35;;;4.80;;
55202;SDS011;41077;52.956;6.796;2023-04-24T01:00:09;4.95;;;4.53;;
55202;SDS011;41077;52.956;6.796;2023-04-24T01:02:39;5.32;;;4.82;;
55202;SDS011;41077;52.956;6.796;2023-04-24T01:05:08;5.80;;;5.10;;
55202;SDS011;41077;52.956;6.796;2023-04-24T01:07:34;5.10;;;4.53;;
55202;SDS011;41077;52.956;6.796;2023-04-24T01:10:01;5.78;;;4.80;;
55202;SDS011;41077;52.956;6.796;2023-04-24T01:12:28;5.70;;;5.18;;
55202;SDS011;41077;52.956;6.796;2023-04-24T01:14:54;5.57;;;5.07;;
55202;SDS011;41077;52.956;6.796;2023-04-24T01:17:20;6.90;;;5.55;;
55202;SDS011;41077;52.956;6.796;2023-04-24T01:19:46;5.93;;;5.32;;
55202;SDS011;41077;52.956;6.796;2023-04-24T01:22:14;6.32;;;5.72;;
55202;SDS011;41077;52.956;6.796;2023-04-24T01:24:41;7.60;;;6.28;;
55202;SDS011;41077;52.956;6.796;2023-04-24T01:27:08;6.72;;;6.03;;
55202;SDS011;41077;52.956;6.796;2023-04-24T01:29:35;7.82;;;6.97;;
55202;SDS011;41077;52.956;6.796;2023-04-24T01:32:02;8.82;;;7.57;;
55202;SDS011;41077;52.956;6.796;2023-04-24T01:34:28;8.27;;;6.90;;
55202;SDS011;41077;52.956;6.796;2023-04-24T01:36:54;9.27;;;7.40;;
55202;SDS011;41077;52.956;6.796;2023-04-24T01:39:21;8.48;;;7.68;;
55202;SDS011;41077;52.956;6.796;2023-04-24T01:41:50;9.88;;;8.88;;
55202;SDS011;41077;52.956;6.796;2023-04-24T01:44:17;7.03;;;6.32;;
55202;SDS011;41077;52.956;6.796;2023-04-24T01:46:43;7.35;;;6.60;;
55202;SDS011;41077;52.956;6.796;2023-04-24T01:49:09;8.32;;;6.47;;
55202;SDS011;41077;52.956;6.796;2023-04-24T01:51:35;7.47;;;6.55;;
55202;SDS011;41077;52.956;6.796;2023-04-24T01:54:01;6.22;;;5.63;;
55202;SDS011;41077;52.956;6.796;2023-04-24T01:56:29;6.30;;;5.70;;
55202;SDS011;41077;52.956;6.796;2023-04-24T01:58:57;7.35;;;6.47;;
55202;SDS011;41077;52.956;6.796;2023-04-24T02:01:24;6.65;;;6.15;;
55202;SDS011;41077;52.956;6.796;2023-04-24T02:03:50;6.20;;;5.70;;
55202;SDS011;41077;52.956;6.796;2023-04-24T02:06:16;8.40;;;5.38;;
55202;SDS011;41077;52.956;6.796;2023-04-24T02:08:42;6.57;;;6.07;;
55202;SDS011;41077;52.956;6.796;2023-04-24T02:11:10;6.63;;;6.07;;
55202;SDS011;41077;52.956;6.796;2023-04-24T02:13:36;6.22;;;5.72;;
55202;SDS011;41077;52.956;6.796;2023-04-24T02:16:02;9.13;;;5.63;;
55202;SDS011;41077;52.956;6.796;2023-04-24T02:18:27;6.68;;;6.18;;
55202;SDS011;41077;52.956;6.796;2023-04-24T02:20:53;7.00;;;6.30;;
55202;SDS011;41077;52.956;6.796;2023-04-24T02:23:19;6.65;;;6.05;;
55202;SDS011;41077;52.956;6.796;2023-04-24T02:25:44;7.63;;;6.93;;
55202;SDS011;41077;52.956;6.796;2023-04-24T02:28:10;6.53;;;6.00;;
55202;SDS011;41077;52.956;6.796;2023-04-24T02:30:36;7.40;;;6.72;;
55202;SDS011;41077;52.956;6.796;2023-04-24T02:33:02;6.93;;;6.35;;
55202;SDS011;41077;52.956;6.796;2023-04-24T02:35:28;9.70;;;7.90;;
55202;SDS011;41077;52.956;6.796;2023-04-24T02:37:54;7.47;;;6.78;;
55202;SDS011;41077;52.956;6.796;2023-04-24T02:40:19;7.95;;;7.32;;
55202;SDS011;41077;52.956;6.796;2023-04-24T02:42:45;6.90;;;6.30;;
55202;SDS011;41077;52.956;6.796;2023-04-24T02:45:11;9.75;;;7.78;;
55202;SDS011;41077;52.956;6.796;2023-04-24T02:47:36;7.00;;;6.22;;
55202;SDS011;41077;52.956;6.796;2023-04-24T02:50:02;8.32;;;7.63;;
55202;SDS011;41077;52.956;6.796;2023-04-24T02:52:29;8.18;;;7.47;;
55202;SDS011;41077;52.956;6.796;2023-04-24T02:54:54;9.10;;;8.20;;
55202;SDS011;41077;52.956;6.796;2023-04-24T02:57:20;8.57;;;7.88;;
55202;SDS011;41077;52.956;6.796;2023-04-24T02:59:46;9.30;;;8.10;;
55202;SDS011;41077;52.956;6.796;2023-04-24T03:02:11;10.38;;;8.82;;
55202;SDS011;41077;52.956;6.796;2023-04-24T03:04:37;9.55;;;8.40;;
55202;SDS011;41077;52.956;6.796;2023-04-24T03:07:04;8.15;;;7.43;;
55202;SDS011;41077;52.956;6.796;2023-04-24T03:09:30;9.30;;;8.20;;
55202;SDS011;41077;52.956;6.796;2023-04-24T03:11:56;8.20;;;7.40;;
55202;SDS011;41077;52.956;6.796;2023-04-24T03:14:23;11.05;;;8.50;;
55202;SDS011;41077;52.956;6.796;2023-04-24T03:16:49;8.63;;;7.72;;
55202;SDS011;41077;52.956;6.796;2023-04-24T03:19:15;9.27;;;8.38;;
55202;SDS011;41077;52.956;6.796;2023-04-24T03:21:41;8.75;;;7.82;;
55202;SDS011;41077;52.956;6.796;2023-04-24T03:24:07;9.00;;;8.20;;
55202;SDS011;41077;52.956;6.796;2023-04-24T03:26:33;9.20;;;8.38;;
55202;SDS011;41077;52.956;6.796;2023-04-24T03:29:00;10.05;;;8.30;;
55202;SDS011;41077;52.956;6.796;2023-04-24T03:31:25;11.35;;;8.98;;
55202;SDS011;41077;52.956;6.796;2023-04-24T03:33:51;9.07;;;8.27;;
55202;SDS011;41077;52.956;6.796;2023-04-24T03:36:17;8.40;;;7.68;;
55202;SDS011;41077;52.956;6.796;2023-04-24T03:38:44;8.60;;;7.80;;
55202;SDS011;41077;52.956;6.796;2023-04-24T03:41:10;8.95;;;8.15;;
55202;SDS011;41077;52.956;6.796;2023-04-24T03:43:36;9.65;;;8.85;;
55202;SDS011;41077;52.956;6.796;2023-04-24T03:46:02;9.38;;;8.32;;
55202;SDS011;41077;52.956;6.796;2023-04-24T03:48:28;9.65;;;8.65;;
55202;SDS011;41077;52.956;6.796;2023-04-24T03:50:53;9.98;;;9.15;;
55202;SDS011;41077;52.956;6.796;2023-04-24T03:53:19;9.77;;;7.80;;
55202;SDS011;41077;52.956;6.796;2023-04-24T03:55:45;7.82;;;7.13;;
55202;SDS011;41077;52.956;6.796;2023-04-24T03:58:11;10.45;;;9.40;;
55202;SDS011;41077;52.956;6.796;2023-04-24T04:00:36;8.73;;;7.82;;
55202;SDS011;41077;52.956;6.796;2023-04-24T04:03:03;8.70;;;7.90;;
55202;SDS011;41077;52.956;6.796;2023-04-24T04:05:29;8.88;;;8.05;;
55202;SDS011;41077;52.956;6.796;2023-04-24T04:07:54;11.20;;;8.77;;
55202;SDS011;41077;52.956;6.796;2023-04-24T04:10:20;10.25;;;7.32;;
55202;SDS011;41077;52.956;6.796;2023-04-24T04:12:46;12.57;;;7.88;;
55202;SDS011;41077;52.956;6.796;2023-04-24T04:15:11;9.60;;;8.52;;
55202;SDS011;41077;52.956;6.796;2023-04-24T04:17:37;8.27;;;7.47;;
55202;SDS011;41077;52.956;6.796;2023-04-24T04:20:03;8.15;;;7.35;;
55202;SDS011;41077;52.956;6.796;2023-04-24T04:22:35;9.77;;;7.50;;
55202;SDS011;41077;52.956;6.796;2023-04-24T04:25:01;9.23;;;8.38;;
55202;SDS011;41077;52.956;6.796;2023-04-24T04:27:27;9.55;;;8.43;;
55202;SDS011;41077;52.956;6.796;2023-04-24T04:29:54;8.32;;;7.53;;
55202;SDS011;41077;52.956;6.796;2023-04-24T04:32:21;7.93;;;7.22;;
55202;SDS011;41077;52.956;6.796;2023-04-24T04:34:47;7.28;;;6.45;;
55202;SDS011;41077;52.956;6.796;2023-04-24T04:37:14;7.72;;;7.00;;
55202;SDS011;41077;52.956;6.796;2023-04-24T04:39:40;7.60;;;6.80;;
55202;SDS011;41077;52.956;6.796;2023-04-24T04:42:06;7.57;;;6.80;;
55202;SDS011;41077;52.956;6.796;2023-04-24T04:44:31;8.85;;;7.88;;
55202;SDS011;41077;52.956;6.796;2023-04-24T04:46:57;8.70;;;7.80;;
55202;SDS011;41077;52.956;6.796;2023-04-24T04:49:25;6.75;;;6.05;;
55202;SDS011;41077;52.956;6.796;2023-04-24T04:51:53;8.75;;;7.95;;
55202;SDS011;41077;52.956;6.796;2023-04-24T04:54:19;8.88;;;8.07;;
55202;SDS011;41077;52.956;6.796;2023-04-24T04:56:44;9.23;;;7.45;;
55202;SDS011;41077;52.956;6.796;2023-04-24T04:59:10;9.30;;;8.30;;
55202;SDS011;41077;52.956;6.796;2023-04-24T05:01:36;8.88;;;7.97;;
55202;SDS011;41077;52.956;6.796;2023-04-24T05:04:01;9.00;;;7.68;;
55202;SDS011;41077;52.956;6.796;2023-04-24T05:06:27;8.82;;;7.85;;
55202;SDS011;41077;52.956;6.796;2023-04-24T05:08:53;6.60;;;5.43;;
55202;SDS011;41077;52.956;6.796;2023-04-24T05:11:22;8.15;;;7.35;;
55202;SDS011;41077;52.956;6.796;2023-04-24T05:13:48;8.27;;;6.38;;
55202;SDS011;41077;52.956;6.796;2023-04-24T05:16:13;6.50;;;5.90;;
55202;SDS011;41077;52.956;6.796;2023-04-24T05:18:39;6.32;;;5.72;;
55202;SDS011;41077;52.956;6.796;2023-04-24T05:21:05;7.90;;;6.13;;
55202;SDS011;41077;52.956;6.796;2023-04-24T05:23:31;7.53;;;5.82;;
55202;SDS011;41077;52.956;6.796;2023-04-24T05:25:56;5.38;;;4.57;;
55202;SDS011;41077;52.956;6.796;2023-04-24T05:28:22;6.55;;;5.55;;
55202;SDS011;41077;52.956;6.796;2023-04-24T05:30:48;6.97;;;6.20;;
55202;SDS011;41077;52.956;6.796;2023-04-24T05:33:13;8.18;;;5.25;;
55202;SDS011;41077;52.956;6.796;2023-04-24T05:35:40;5.90;;;5.30;;
55202;SDS011;41077;52.956;6.796;2023-04-24T05:38:11;6.53;;;5.82;;
55202;SDS011;41077;52.956;6.796;2023-04-24T05:40:37;7.53;;;6.75;;
55202;SDS011;41077;52.956;6.796;2023-04-24T05:43:03;6.75;;;6.07;;
55202;SDS011;41077;52.956;6.796;2023-04-24T05:45:29;8.60;;;6.60;;
55202;SDS011;41077;52.956;6.796;2023-04-24T05:47:55;8.05;;;7.22;;
55202;SDS011;41077;52.956;6.796;2023-04-24T05:50:20;10.60;;;7.70;;
55202;SDS011;41077;52.956;6.796;2023-04-24T05:52:46;8.77;;;7.85;;
55202;SDS011;41077;52.956;6.796;2023-04-24T05:55:12;8.82;;;7.53;;
55202;SDS011;41077;52.956;6.796;2023-04-24T05:57:38;8.45;;;7.60;;
55202;SDS011;41077;52.956;6.796;2023-04-24T06:00:04;11.90;;;7.60;;
55202;SDS011;41077;52.956;6.796;2023-04-24T06:02:30;8.98;;;7.53;;
55202;SDS011;41077;52.956;6.796;2023-04-24T06:04:58;8.40;;;6.65;;
55202;SDS011;41077;52.956;6.796;2023-04-24T06:07:25;10.48;;;7.85;;
55202;SDS011;41077;52.956;6.796;2023-04-24T06:09:53;9.32;;;7.55;;
55202;SDS011;41077;52.956;6.796;2023-04-24T06:12:19;10.00;;;7.47;;
55202;SDS011;41077;52.956;6.796;2023-04-24T06:14:45;8.00;;;6.85;;
55202;SDS011;41077;52.956;6.796;2023-04-24T06:17:10;11.35;;;6.95;;
55202;SDS011;41077;52.956;6.796;2023-04-24T06:19:36;9.13;;;7.10;;
55202;SDS011;41077;52.956;6.796;2023-04-24T06:22:02;8.82;;;6.28;;
55202;SDS011;41077;52.956;6.796;2023-04-24T06:24:28;9.55;;;6.95;;
55202;SDS011;41077;52.956;6.796;2023-04-24T06:26:53;9.00;;;7.50;;
55202;SDS011;41077;52.956;6.796;2023-04-24T06:29:19;11.02;;;6.55;;
55202;SDS011;41077;52.956;6.796;2023-04-24T06:31:45;9.07;;;6.13;;
55202;SDS011;41077;52.956;6.796;2023-04-24T06:34:10;8.25;;;6.57;;
55202;SDS011;41077;52.956;6.796;2023-04-24T06:36:36;8.15;;;6.38;;
55202;SDS011;41077;52.956;6.796;2023-04-24T06:39:02;8.07;;;6.18;;
55202;SDS011;41077;52.956;6.796;2023-04-24T06:41:28;6.78;;;6.05;;
55202;SDS011;41077;52.956;6.796;2023-04-24T06:43:54;8.35;;;7.07;;
55202;SDS011;41077;52.956;6.796;2023-04-24T06:46:20;7.45;;;6.53;;
55202;SDS011;41077;52.956;6.796;2023-04-24T06:48:49;7.50;;;6.78;;
55202;SDS011;41077;52.956;6.796;2023-04-24T06:51:15;8.05;;;6.80;;
55202;SDS011;41077;52.956;6.796;2023-04-24T06:53:43;8.43;;;6.85;;
55202;SDS011;41077;52.956;6.796;2023-04-24T06:56:08;9.77;;;6.18;;
55202;SDS011;41077;52.956;6.796;2023-04-24T06:58:34;8.50;;;6.40;;
55202;SDS011;41077;52.956;6.796;2023-04-24T07:01:00;14.05;;;8.40;;
55202;SDS011;41077;52.956;6.796;2023-04-24T07:03:26;9.60;;;7.15;;
55202;SDS011;41077;52.956;6.796;2023-04-24T07:05:51;7.53;;;6.50;;
55202;SDS011;41077;52.956;6.796;2023-04-24T07:08:18;8.27;;;5.93;;
55202;SDS011;41077;52.956;6.796;2023-04-24T07:10:45;9.52;;;6.55;;
55202;SDS011;41077;52.956;6.796;2023-04-24T07:13:11;6.10;;;4.57;;
55202;SDS011;41077;52.956;6.796;2023-04-24T07:15:36;8.25;;;5.47;;
55202;SDS011;41077;52.956;6.796;2023-04-24T07:18:02;4.43;;;4.00;;
55202;SDS011;41077;52.956;6.796;2023-04-24T07:20:28;5.88;;;4.47;;
55202;SDS011;41077;52.956;6.796;2023-04-24T07:22:54;6.40;;;4.90;;
55202;SDS011;41077;52.956;6.796;2023-04-24T07:25:19;6.32;;;4.55;;
55202;SDS011;41077;52.956;6.796;2023-04-24T07:27:45;9.70;;;5.20;;
55202;SDS011;41077;52.956;6.796;2023-04-24T07:30:11;6.10;;;4.45;;
55202;SDS011;41077;52.956;6.796;2023-04-24T07:32:37;9.35;;;5.88;;
55202;SDS011;41077;52.956;6.796;2023-04-24T07:35:02;10.45;;;5.85;;
55202;SDS011;41077;52.956;6.796;2023-04-24T07:37:28;10.55;;;6.47;;
55202;SDS011;41077;52.956;6.796;2023-04-24T07:39:54;11.20;;;6.40;;
55202;SDS011;41077;52.956;6.796;2023-04-24T07:42:20;8.13;;;6.80;;
55202;SDS011;41077;52.956;6.796;2023-04-24T07:44:47;8.05;;;7.18;;
55202;SDS011;41077;52.956;6.796;2023-04-24T07:47:13;10.15;;;6.78;;
55202;SDS011;41077;52.956;6.796;2023-04-24T07:49:42;9.50;;;5.53;;
55202;SDS011;41077;52.956;6.796;2023-04-24T07:52:07;13.68;;;7.30;;
55202;SDS011;41077;52.956;6.796;2023-04-24T07:54:33;5.03;;;3.47;;
55202;SDS011;41077;52.956;6.796;2023-04-24T07:56:59;5.47;;;3.90;;
55202;SDS011;41077;52.956;6.796;2023-04-24T07:59:25;7.30;;;4.50;;
55202;SDS011;41077;52.956;6.796;2023-04-24T08:01:51;6.18;;;3.75;;
55202;SDS011;41077;52.956;6.796;2023-04-24T08:04:17;7.40;;;4.40;;
55202;SDS011;41077;52.956;6.796;2023-04-24T08:06:43;7.97;;;4.82;;
55202;SDS011;41077;52.956;6.796;2023-04-24T08:09:09;9.30;;;5.70;;
55202;SDS011;41077;52.956;6.796;2023-04-24T08:11:35;9.88;;;4.75;;
55202;SDS011;41077;52.956;6.796;2023-04-24T08:14:00;11.13;;;5.35;;
55202;SDS011;41077;52.956;6.796;2023-04-24T08:16:27;4.90;;;4.20;;
55202;SDS011;41077;52.956;6.796;2023-04-24T08:18:53;5.32;;;3.25;;
55202;SDS011;41077;52.956;6.796;2023-04-24T08:21:18;8.32;;;4.10;;
55202;SDS011;41077;52.956;6.796;2023-04-24T08:23:45;6.40;;;4.60;;
55202;SDS011;41077;52.956;6.796;2023-04-24T08:26:11;6.72;;;3.00;;
55202;SDS011;41077;52.956;6.796;2023-04-24T08:28:38;9.52;;;3.60;;
55202;SDS011;41077;52.956;6.796;2023-04-24T08:31:04;8.45;;;3.60;;
55202;SDS011;41077;52.956;6.796;2023-04-24T08:33:30;11.48;;;5.50;;
55202;SDS011;41077;52.956;6.796;2023-04-24T08:36:02;14.95;;;4.78;;
55202;SDS011;41077;52.956;6.796;2023-04-24T08:38:29;14.43;;;6.55;;
55202;SDS011;41077;52.956;6.796;2023-04-24T08:40:56;11.23;;;6.68;;
55202;SDS011;41077;52.956;6.796;2023-04-24T08:43:23;15.00;;;9.85;;
55202;SDS011;41077;52.956;6.796;2023-04-24T08:45:49;18.42;;;10.85;;
55202;SDS011;41077;52.956;6.796;2023-04-24T08:48:16;22.65;;;11.70;;
55202;SDS011;41077;52.956;6.796;2023-04-24T08:50:42;20.00;;;12.13;;
55202;SDS011;41077;52.956;6.796;2023-04-24T08:53:09;24.65;;;12.10;;
55202;SDS011;41077;52.956;6.796;2023-04-24T08:55:35;37.05;;;15.10;;
55202;SDS011;41077;52.956;6.796;2023-04-24T08:58:02;29.83;;;14.40;;
55202;SDS011;41077;52.956;6.796;2023-04-24T09:00:29;28.00;;;15.60;;
55202;SDS011;41077;52.956;6.796;2023-04-24T09:02:55;31.00;;;15.60;;
55202;SDS011;41077;52.956;6.796;2023-04-24T09:05:22;34.20;;;18.08;;
55202;SDS011;41077;52.956;6.796;2023-04-24T09:07:54;30.88;;;16.35;;
55202;SDS011;41077;52.956;6.796;2023-04-24T09:10:21;35.40;;;18.73;;
55202;SDS011;41077;52.956;6.796;2023-04-24T09:12:50;37.85;;;19.23;;
55202;SDS011;41077;52.956;6.796;2023-04-24T09:15:17;35.55;;;18.33;;
55202;SDS011;41077;52.956;6.796;2023-04-24T09:17:45;37.10;;;19.15;;
55202;SDS011;41077;52.956;6.796;2023-04-24T09:20:11;31.08;;;18.08;;
55202;SDS011;41077;52.956;6.796;2023-04-24T09:22:37;40.42;;;19.85;;
55202;SDS011;41077;52.956;6.796;2023-04-24T09:25:04;35.90;;;19.17;;
55202;SDS011;41077;52.956;6.796;2023-04-24T09:27:34;31.73;;;17.80;;
55202;SDS011;41077;52.956;6.796;2023-04-24T09:30:00;31.85;;;18.85;;
55202;SDS011;41077;52.956;6.796;2023-04-24T09:32:26;36.90;;;19.73;;
55202;SDS011;41077;52.956;6.796;2023-04-24T09:35:08;36.08;;;21.30;;
55202;SDS011;41077;52.956;6.796;2023-04-24T09:37:36;30.15;;;17.55;;
55202;SDS011;41077;52.956;6.796;2023-04-24T09:40:07;35.05;;;20.25;;
55202;SDS011;41077;52.956;6.796;2023-04-24T09:42:40;34.67;;;20.70;;
55202;SDS011;41077;52.956;6.796;2023-04-24T09:45:09;30.30;;;17.17;;
55202;SDS011;41077;52.956;6.796;2023-04-24T09:47:39;36.35;;;19.38;;
55202;SDS011;41077;52.956;6.796;2023-04-24T09:50:15;31.42;;;18.00;;
55202;SDS011;41077;52.956;6.796;2023-04-24T09:52:42;35.45;;;20.92;;
55202;SDS011;41077;52.956;6.796;2023-04-24T09:55:21;30.63;;;20.02;;
55202;SDS011;41077;52.956;6.796;2023-04-24T09:57:56;30.70;;;19.75;;
55202;SDS011;41077;52.956;6.796;2023-04-24T10:00:29;23.38;;;16.25;;
55202;SDS011;41077;52.956;6.796;2023-04-24T10:02:57;22.33;;;16.15;;
55202;SDS011;41077;52.956;6.796;2023-04-24T10:05:33;29.25;;;17.63;;
55202;SDS011;41077;52.956;6.796;2023-04-24T10:08:00;31.05;;;18.73;;
55202;SDS011;41077;52.956;6.796;2023-04-24T10:10:35;27.67;;;18.02;;
55202;SDS011;41077;52.956;6.796;2023-04-24T10:13:05;24.05;;;14.77;;
55202;SDS011;41077;52.956;6.796;2023-04-24T10:15:32;28.90;;;15.38;;
55202;SDS011;41077;52.956;6.796;2023-04-24T10:17:58;21.17;;;14.02;;
55202;SDS011;41077;52.956;6.796;2023-04-24T10:20:26;22.08;;;13.93;;
55202;SDS011;41077;52.956;6.796;2023-04-24T10:22:54;23.55;;;15.10;;
55202;SDS011;41077;52.956;6.796;2023-04-24T10:25:26;35.78;;;17.42;;
55202;SDS011;41077;52.956;6.796;2023-04-24T10:27:53;23.90;;;14.18;;
55202;SDS011;41077;52.956;6.796;2023-04-24T10:30:22;20.42;;;13.40;;
55202;SDS011;41077;52.956;6.796;2023-04-24T10:32:48;25.85;;;13.90;;
55202;SDS011;41077;52.956;6.796;2023-04-24T10:35:15;19.70;;;11.60;;
55202;SDS011;41077;52.956;6.796;2023-04-24T10:37:49;17.73;;;11.60;;
55202;SDS011;41077;52.956;6.796;2023-04-24T10:40:27;23.88;;;11.27;;
55202;SDS011;41077;52.956;6.796;2023-04-24T10:42:56;20.63;;;11.82;;
55202;SDS011;41077;52.956;6.796;2023-04-24T10:45:23;22.50;;;11.73;;
55202;SDS011;41077;52.956;6.796;2023-04-24T10:50:27;24.85;;;11.98;;
55202;SDS011;41077;52.956;6.796;2023-04-24T10:53:17;22.67;;;11.40;;
55202;SDS011;41077;52.956;6.796;2023-04-24T10:55:51;24.10;;;11.27;;
55202;SDS011;41077;52.956;6.796;2023-04-24T10:58:42;14.23;;;7.97;;
55202;SDS011;41077;52.956;6.796;2023-04-24T11:01:31;15.30;;;7.85;;
55202;SDS011;41077;52.956;6.796;2023-04-24T11:03:59;13.32;;;7.32;;
55202;SDS011;41077;52.956;6.796;2023-04-24T11:06:31;17.23;;;6.95;;
55202;SDS011;41077;52.956;6.796;2023-04-24T11:09:05;15.60;;;6.82;;
55202;SDS011;41077;52.956;6.796;2023-04-24T11:11:32;20.63;;;6.40;;
55202;SDS011;41077;52.956;6.796;2023-04-24T11:26:50;11.13;;;4.68;;
55202;SDS011;41077;52.956;6.796;2023-04-24T11:29:21;10.65;;;4.43;;
55202;SDS011;41077;52.956;6.796;2023-04-24T11:31:46;11.63;;;5.63;;
55202;SDS011;41077;52.956;6.796;2023-04-24T11:34:16;12.70;;;4.55;;
55202;SDS011;41077;52.956;6.796;2023-04-24T11:36:46;15.73;;;5.15;;
55202;SDS011;41077;52.956;6.796;2023-04-24T11:39:15;7.72;;;3.60;;
55202;SDS011;41077;52.956;6.796;2023-04-24T11:41:40;10.27;;;3.58;;
55202;SDS011;41077;52.956;6.796;2023-04-24T11:44:07;7.68;;;3.55;;
55202;SDS011;41077;52.956;6.796;2023-04-24T11:46:34;10.50;;;3.80;;
55202;SDS011;41077;52.956;6.796;2023-04-24T11:48:59;13.73;;;4.25;;
55202;SDS011;41077;52.956;6.796;2023-04-24T11:51:26;10.73;;;3.95;;
55202;SDS011;41077;52.956;6.796;2023-04-24T11:53:52;12.25;;;3.90;;
55202;SDS011;41077;52.956;6.796;2023-04-24T11:56:19;12.73;;;4.63;;
55202;SDS011;41077;52.956;6.796;2023-04-24T11:58:47;14.20;;;4.97;;
55202;SDS011;41077;52.956;6.796;2023-04-24T12:01:13;11.35;;;4.72;;
55202;SDS011;41077;52.956;6.796;2023-04-24T12:03:39;11.52;;;3.88;;
55202;SDS011;41077;52.956;6.796;2023-04-24T12:06:08;11.57;;;4.00;;
55202;SDS011;41077;52.956;6.796;2023-04-24T12:08:35;10.88;;;3.63;;
55202;SDS011;41077;52.956;6.796;2023-04-24T12:11:02;11.30;;;3.33;;
55202;SDS011;41077;52.956;6.796;2023-04-24T12:13:29;13.10;;;3.60;;
55202;SDS011;41077;52.956;6.796;2023-04-24T12:15:56;9.50;;;3.58;;
55202;SDS011;41077;52.956;6.796;2023-04-24T12:18:23;10.55;;;3.20;;
55202;SDS011;41077;52.956;6.796;2023-04-24T12:20:49;7.47;;;3.33;;
55202;SDS011;41077;52.956;6.796;2023-04-24T12:23:15;7.07;;;2.80;;
55202;SDS011;41077;52.956;6.796;2023-04-24T12:25:41;11.45;;;2.90;;
55202;SDS011;41077;52.956;6.796;2023-04-24T12:28:11;8.25;;;3.10;;
55202;SDS011;41077;52.956;6.796;2023-04-24T12:30:41;11.68;;;3.65;;
55202;SDS011;41077;52.956;6.796;2023-04-24T12:33:20;5.80;;;3.28;;
55202;SDS011;41077;52.956;6.796;2023-04-24T12:35:47;7.97;;;2.90;;
55202;SDS011;41077;52.956;6.796;2023-04-24T12:38:16;6.78;;;2.80;;
55202;SDS011;41077;52.956;6.796;2023-04-24T12:40:46;6.78;;;3.17;;
55202;SDS011;41077;52.956;6.796;2023-04-24T12:43:15;8.93;;;2.55;;
55202;SDS011;41077;52.956;6.796;2023-04-24T12:45:42;9.30;;;2.97;;
55202;SDS011;41077;52.956;6.796;2023-04-24T12:48:09;8.35;;;3.67;;
55202;SDS011;41077;52.956;6.796;2023-04-24T12:50:35;8.25;;;3.40;;
55202;SDS011;41077;52.956;6.796;2023-04-24T12:53:00;10.10;;;3.47;;
55202;SDS011;41077;52.956;6.796;2023-04-24T12:55:26;8.25;;;3.47;;
55202;SDS011;41077;52.956;6.796;2023-04-24T12:57:52;7.28;;;3.00;;
55202;SDS011;41077;52.956;6.796;2023-04-24T13:00:20;7.03;;;2.95;;
55202;SDS011;41077;52.956;6.796;2023-04-24T13:02:46;6.70;;;2.50;;
55202;SDS011;41077;52.956;6.796;2023-04-24T13:05:11;9.25;;;2.60;;
55202;SDS011;41077;52.956;6.796;2023-04-24T13:07:38;6.00;;;2.58;;
55202;SDS011;41077;52.956;6.796;2023-04-24T13:10:04;15.93;;;7.95;;
55202;SDS011;41077;52.956;6.796;2023-04-24T13:12:31;9.60;;;2.95;;
55202;SDS011;41077;52.956;6.796;2023-04-24T13:14:57;3.15;;;2.00;;
55202;SDS011;41077;52.956;6.796;2023-04-24T13:17:23;12.45;;;4.43;;
55202;SDS011;41077;52.956;6.796;2023-04-24T13:19:50;6.22;;;2.22;;
55202;SDS011;41077;52.956;6.796;2023-04-24T13:22:16;4.35;;;2.10;;
55202;SDS011;41077;52.956;6.796;2023-04-24T13:24:44;8.15;;;2.45;;
55202;SDS011;41077;52.956;6.796;2023-04-24T13:27:10;6.18;;;2.20;;
55202;SDS011;41077;52.956;6.796;2023-04-24T13:29:36;4.93;;;1.90;;
55202;SDS011;41077;52.956;6.796;2023-04-24T13:32:02;6.30;;;2.10;;
55202;SDS011;41077;52.956;6.796;2023-04-24T13:34:28;7.00;;;2.05;;
55202;SDS011;41077;52.956;6.796;2023-04-24T13:36:55;6.90;;;2.45;;
55202;SDS011;41077;52.956;6.796;2023-04-24T13:39:22;4.25;;;1.80;;
55202;SDS011;41077;52.956;6.796;2023-04-24T13:41:48;6.75;;;2.97;;
55202;SDS011;41077;52.956;6.796;2023-04-24T13:44:14;10.30;;;1.90;;
55202;SDS011;41077;52.956;6.796;2023-04-24T13:46:41;2.90;;;1.70;;
55202;SDS011;41077;52.956;6.796;2023-04-24T13:49:09;6.18;;;1.83;;
55202;SDS011;41077;52.956;6.796;2023-04-24T13:51:35;5.03;;;1.63;;
55202;SDS011;41077;52.956;6.796;2023-04-24T13:54:01;4.38;;;2.25;;
55202;SDS011;41077;52.956;6.796;2023-04-24T13:56:26;8.25;;;2.28;;
55202;SDS011;41077;52.956;6.796;2023-04-24T13:58:52;7.72;;;2.00;;
55202;SDS011;41077;52.956;6.796;2023-04-24T14:01:19;6.30;;;1.73;;
55202;SDS011;41077;52.956;6.796;2023-04-24T14:03:49;6.45;;;1.80;;
55202;SDS011;41077;52.956;6.796;2023-04-24T14:06:15;7.50;;;1.90;;
55202;SDS011;41077;52.956;6.796;2023-04-24T14:08:40;4.38;;;2.03;;
55202;SDS011;41077;52.956;6.796;2023-04-24T14:11:06;7.00;;;1.85;;
55202;SDS011;41077;52.956;6.796;2023-04-24T14:13:32;4.20;;;1.95;;
55202;SDS011;41077;52.956;6.796;2023-04-24T14:15:58;1.67;;;1.40;;
55202;SDS011;41077;52.956;6.796;2023-04-24T14:18:23;6.50;;;2.25;;
55202;SDS011;41077;52.956;6.796;2023-04-24T14:20:49;4.47;;;2.53;;
55202;SDS011;41077;52.956;6.796;2023-04-24T14:23:15;5.53;;;1.60;;
55202;SDS011;41077;52.956;6.796;2023-04-24T14:25:41;5.63;;;1.80;;
55202;SDS011;41077;52.956;6.796;2023-04-24T14:28:06;5.13;;;1.60;;
55202;SDS011;41077;52.956;6.796;2023-04-24T14:30:32;6.85;;;1.50;;
55202;SDS011;41077;52.956;6.796;2023-04-24T14:32:58;7.10;;;2.42;;
55202;SDS011;41077;52.956;6.796;2023-04-24T14:35:23;5.20;;;1.70;;
55202;SDS011;41077;52.956;6.796;2023-04-24T14:37:50;9.82;;;3.47;;
55202;SDS011;41077;52.956;6.796;2023-04-24T14:40:16;15.10;;;6.78;;
55202;SDS011;41077;52.956;6.796;2023-04-24T14:42:41;4.97;;;2.30;;
55202;SDS011;41077;52.956;6.796;2023-04-24T14:45:07;8.38;;;2.22;;
55202;SDS011;41077;52.956;6.796;2023-04-24T14:47:33;7.55;;;2.67;;
55202;SDS011;41077;52.956;6.796;2023-04-24T14:49:59;5.28;;;2.15;;
55202;SDS011;41077;52.956;6.796;2023-04-24T14:52:25;10.85;;;3.22;;
55202;SDS011;41077;52.956;6.796;2023-04-24T14:54:50;16.58;;;3.53;;